Time;durP1;ratioP1;P1;durP2;ratioP2;P2;SDS_P1;SDS_P2;PMS_P1;PMS_P2;Temp;Humidity;BMP_temperature;BMP_pressure;BME280_temperature;BME280_humidity;BME280_pressure;Samples;Min_cycle;Max_cycle;Signal;HPM_P1;HPM_P2
2022/01/27 06:22:31;;;;;;;13.07;11.70;;;;;;;-0.92;100.00;95429.84;5221740;23;20047;-80
2022/01/27 06:24:57;;;;;;;14.70;12.20;;;;;;;-0.75;100.00;95455.09;4976773;28;20069;-80
2022/01/27 06:29:58;;;;;;;16.80;12.05;;;;;;;-0.91;100.00;95424.66;5875279;23;20037;-82
2022/01/27 06:34:58;;;;;;;14.07;11.70;;;;;;;-0.90;100.00;95426.28;5321953;23;20035;-83
2022/01/27 06:40:00;;;;;;;11.05;9.95;;;;;;;-0.90;100.00;95439.00;5474943;23;20034;-82
2022/01/27 06:50:11;;;;;;;11.15;9.75;;;;;;;-0.77;100.00;95457.69;5836040;23;20106;-81
2022/01/27 06:55:13;;;;;;;10.90;9.80;;;;;;;-1.00;100.00;95443.00;5366935;23;20060;-84
2022/01/27 07:08:00;;;;;;;11.93;10.73;;;;;;;-0.67;100.00;95468.16;5530242;23;20069;-77
2022/01/27 07:10:26;;;;;;;10.90;9.77;;;;;;;-0.45;100.00;95499.03;4970690;28;20031;-80
2022/01/27 07:15:29;;;;;;;12.55;11.25;;;;;;;-0.63;100.00;95472.16;5613949;23;20052;-81
2022/01/27 07:17:54;;;;;;;14.30;11.38;;;;;;;-0.75;100.00;95440.66;4981656;28;20043;-82
2022/01/27 10:56:55;;;;;;;16.65;14.25;;;;;;;3.12;94.39;95403.38;4934759;29;20036;-84
2022/01/27 11:00:02;;;;;;;14.60;12.27;;;;;;;3.22;94.54;95449.56;4989768;28;20095;-84
2022/01/27 11:05:26;;;;;;;14.13;12.63;;;;;;;2.83;95.21;95430.28;5544658;23;20062;-76
2022/01/27 11:07:52;;;;;;;17.02;13.57;;;;;;;2.98;96.14;95451.41;4930625;29;20042;-76
2022/01/27 11:10:19;;;;;;;17.98;13.68;;;;;;;3.11;95.74;95444.44;4930443;29;20110;-78
2022/01/27 11:15:23;;;;;;;17.95;13.95;;;;;;;2.61;94.95;95387.59;5161322;23;20079;-82
2022/01/27 11:18:12;;;;;;;16.33;13.23;;;;;;;3.04;94.14;95435.59;4972745;28;20058;-82
2022/01/27 11:21:37;;;;;;;16.53;13.93;;;;;;;2.32;93.49;95373.56;5000231;28;20155;-83
2022/01/27 11:24:31;;;;;;;14.98;13.27;;;;;;;3.11;92.92;95431.66;4990257;28;20069;-82
2022/01/27 11:27:15;;;;;;;16.55;13.45;;;;;;;3.25;90.12;95387.94;5015920;28;20042;-81
2022/01/27 11:29:57;;;;;;;15.05;13.55;;;;;;;3.79;87.77;95394.91;5005615;28;20089;-82
2022/01/27 11:35:31;;;;;;;12.40;11.13;;;;;;;4.31;84.23;95400.13;5210252;23;20063;-83
2022/01/27 11:38:03;;;;;;;11.65;10.48;;;;;;;3.95;83.79;95387.66;4960724;28;20049;-82
2022/01/27 11:40:43;;;;;;;11.45;10.35;;;;;;;3.69;84.53;95384.56;4971940;23;20082;-84
2022/01/27 11:43:24;;;;;;;10.88;9.88;;;;;;;4.23;82.39;95410.19;4947115;29;20030;-79
2022/01/27 11:45:52;;;;;;;9.75;8.65;;;;;;;3.65;83.99;95362.66;4967650;29;20083;-82
2022/01/27 11:48:24;;;;;;;10.52;9.50;;;;;;;3.42;85.12;95412.25;4948793;29;20031;-79
2022/01/27 11:51:09;;;;;;;13.18;9.55;;;;;;;3.02;86.35;95360.69;4955937;29;20040;-80
2022/01/27 11:53:42;;;;;;;11.73;10.05;;;;;;;3.04;86.08;95408.28;4963726;29;20039;-79
2022/01/27 11:56:37;;;;;;;10.73;9.63;;;;;;;3.26;86.92;95398.97;4969476;28;20103;-80
2022/01/27 11:59:40;;;;;;;10.98;9.82;;;;;;;3.67;85.83;95405.16;4970873;29;20055;-80
2022/01/27 12:02:21;;;;;;;10.23;9.23;;;;;;;2.95;87.09;95372.34;4952462;28;20078;-80
2022/01/27 12:04:47;;;;;;;10.98;9.93;;;;;;;2.91;88.24;95358.13;4960367;28;20032;-78
2022/01/27 12:07:12;;;;;;;11.57;10.18;;;;;;;3.22;88.57;95370.25;4954351;29;20054;-81
2022/01/27 12:09:41;;;;;;;10.43;9.43;;;;;;;3.13;89.34;95399.91;4961617;29;20019;-79
2022/01/27 12:12:25;;;;;;;10.95;9.80;;;;;;;2.66;90.42;95375.28;4967049;28;20055;-80
2022/01/27 12:15:01;;;;;;;11.43;10.27;;;;;;;2.80;89.95;95391.34;4946414;28;20058;-80
2022/01/27 12:17:50;;;;;;;13.88;10.40;;;;;;;2.30;90.33;95342.19;4965705;29;20019;-79
2022/01/27 12:20:22;;;;;;;11.95;10.50;;;;;;;2.32;90.54;95334.41;4972291;28;20054;-81
2022/01/27 12:23:01;;;;;;;;;;;;;;;2.73;89.36;95396.09;4972719;28;20114;-80
2022/01/27 12:25:51;;;;;;;12.02;10.07;;;;;;;2.90;88.76;95369.28;4974407;28;19914;-81
2022/01/27 12:28:20;;;;;;;10.60;9.48;;;;;;;3.07;88.64;95390.13;4953677;29;20055;-81
2022/01/27 12:31:12;;;;;;;11.48;10.27;;;;;;;3.16;85.80;95337.44;4948511;29;20083;-81
2022/01/27 12:33:45;;;;;;;10.73;9.65;;;;;;;2.99;87.43;95346.41;4968529;29;20019;-80
2022/01/27 12:36:30;;;;;;;13.27;10.40;;;;;;;3.04;87.51;95323.03;4966580;29;20114;-82
2022/01/27 12:39:32;;;;;;;14.18;10.63;;;;;;;3.09;88.61;95332.00;4968843;29;20024;-87
2022/01/27 12:42:57;;;;;;;13.07;10.80;;;;;;;3.24;87.42;95370.97;4937601;29;20044;-82
2022/01/27 12:45:59;;;;;;;12.63;9.48;;;;;;;3.12;86.58;95346.28;4937062;29;20135;-83
2022/01/27 12:48:42;;;;;;;9.90;8.90;;;;;;;3.26;85.89;95310.25;4930395;29;20024;-81
2022/01/27 12:51:23;;;;;;;15.27;11.00;;;;;;;3.07;85.99;95312.56;4916902;29;20369;-83
2022/01/27 12:54:02;;;;;;;9.60;8.65;;;;;;;3.76;84.18;95323.44;5115880;23;20070;-83
2022/01/27 12:56:56;;;;;;;10.07;9.07;;;;;;;3.47;84.92;95315.44;4936751;29;20020;-83
2022/01/27 12:59:46;;;;;;;11.70;9.35;;;;;;;3.04;85.26;95317.94;4955485;29;20020;-83
2022/01/27 13:02:16;;;;;;;11.32;9.60;;;;;;;3.15;86.42;95317.91;4951379;29;20549;-83
2022/01/27 13:05:00;;;;;;;11.10;9.93;;;;;;;3.21;86.54;95360.97;4957197;29;20028;-81
2022/01/27 13:07:46;;;;;;;10.90;9.90;;;;;;;3.03;86.16;95295.81;4957359;29;20106;-83
2022/01/27 13:10:49;;;;;;;10.65;9.23;;;;;;;3.18;85.31;95338.13;4938006;29;20092;-83
2022/01/27 13:13:21;;;;;;;11.02;9.20;;;;;;;3.41;84.12;95316.72;4950123;29;20091;-83
2022/01/27 13:16:05;;;;;;;10.35;9.20;;;;;;;3.29;83.31;95319.41;4942821;29;20036;-82
2022/01/27 13:18:45;;;;;;;9.27;8.43;;;;;;;3.11;83.62;95285.84;4953996;28;20075;-84
2022/01/27 13:21:42;;;;;;;9.23;8.30;;;;;;;3.38;83.65;95334.06;4937887;29;20032;-81
2022/01/27 13:24:18;;;;;;;11.18;8.40;;;;;;;3.02;83.34;95292.44;4951540;29;20099;-81
2022/01/27 13:26:50;;;;;;;9.77;8.60;;;;;;;2.86;83.62;95294.53;4953343;29;20036;-82
2022/01/27 13:29:28;;;;;;;9.48;8.48;;;;;;;2.99;84.41;95287.56;4956259;29;20039;-79
2022/01/27 13:32:01;;;;;;;9.20;8.27;;;;;;;3.01;85.14;95333.50;4953787;29;20028;-83
2022/01/27 13:34:43;;;;;;;10.73;8.55;;;;;;;2.72;86.21;95293.97;4960838;29;20036;-83
2022/01/27 13:37:46;;;;;;;8.63;7.78;;;;;;;3.38;85.07;95341.75;4939413;29;20032;-83
2022/01/27 13:43:20;;;;;;;11.23;8.93;;;;;;;2.53;86.65;95291.97;4948867;29;20063;-80
2022/01/27 13:46:00;;;;;;;11.77;10.02;;;;;;;2.58;85.70;95305.22;4934565;29;20012;-80
2022/01/27 13:48:32;;;;;;;12.82;9.93;;;;;;;2.23;86.67;95297.59;4954936;29;20039;-80
2022/01/27 13:51:28;;;;;;;;;;;;;;;2.53;88.32;95353.31;4952382;29;20103;-83
2022/01/27 13:54:18;;;;;;;11.25;9.02;;;;;;;2.24;91.02;95318.84;4958973;29;19938;-82
2022/01/27 13:56:52;;;;;;;10.80;9.45;;;;;;;2.11;91.50;95301.84;4942012;29;20310;-81
2022/01/27 13:59:47;;;;;;;10.90;9.77;;;;;;;1.89;92.80;95316.28;4940148;29;20024;-82
2022/01/27 14:02:35;;;;;;;11.07;9.85;;;;;;;2.14;92.87;95331.47;5262335;23;20516;-79
2022/01/27 14:05:17;;;;;;;12.85;9.95;;;;;;;2.13;92.75;95345.16;4968963;28;20040;-80
2022/01/27 14:08:14;;;;;;;11.95;8.85;;;;;;;1.90;93.71;95312.78;4957522;29;20066;-80
2022/01/27 14:11:02;;;;;;;13.77;9.63;;;;;;;1.82;94.12;95312.53;4941088;29;20036;-82
2022/01/27 14:13:56;;;;;;;11.07;9.35;;;;;;;1.62;95.25;95329.22;4971092;28;20035;-81
2022/01/27 14:16:41;;;;;;;12.80;11.27;;;;;;;1.63;96.37;95340.25;4975396;28;20027;-82
2022/01/27 15:39:15;;;;;;;32.38;20.23;;;;;;;-0.47;100.00;95394.03;5004937;23;20050;-73
2022/01/27 15:41:42;;;;;;;33.22;22.55;;;;;;;-0.60;100.00;95393.97;4980945;28;20030;-73
2022/01/27 15:44:08;;;;;;;32.35;22.13;;;;;;;-0.60;100.00;95388.88;4961111;28;20046;-73
2022/01/27 15:46:34;;;;;;;33.80;21.63;;;;;;;-0.62;100.00;95392.44;4978896;28;20030;-72
2022/01/27 15:49:00;;;;;;;26.85;19.02;;;;;;;-0.52;100.00;95390.97;4979532;28;20061;-72
2022/01/27 15:51:26;;;;;;;33.45;22.83;;;;;;;-0.69;100.00;95394.53;4975593;28;20048;-74
2022/01/27 15:53:51;;;;;;;40.80;25.48;;;;;;;-0.69;100.00;95402.16;4969000;28;20116;-74
2022/01/27 15:56:17;;;;;;;35.03;21.98;;;;;;;-0.74;100.00;95395.72;4994874;28;20026;-75
2022/01/27 15:58:42;;;;;;;39.03;25.02;;;;;;;-0.74;100.00;95393.19;4997909;28;20085;-72
2022/01/27 16:01:08;;;;;;;41.88;24.50;;;;;;;-0.73;100.00;95397.34;4996975;28;20040;-73
2022/01/27 16:03:33;;;;;;;37.30;25.77;;;;;;;-0.91;100.00;95394.19;5004581;28;20041;-74
2022/01/27 16:05:59;;;;;;;42.30;26.85;;;;;;;-0.98;100.00;95395.44;4978860;28;20030;-72
2022/01/27 16:08:24;;;;;;;37.88;24.10;;;;;;;-0.92;100.00;95404.41;4994471;28;20029;-71
2022/01/27 16:10:50;;;;;;;38.75;22.83;;;;;;;-1.00;100.00;95409.16;4980186;28;20033;-71
2022/01/27 16:13:15;;;;;;;38.15;23.38;;;;;;;-0.93;100.00;95415.50;5000426;28;20117;-71
2022/01/27 16:15:43;;;;;;;30.27;19.40;;;;;;;-1.03;100.00;95407.63;5002365;28;20495;-72
2022/01/27 16:18:09;;;;;;;38.40;23.83;;;;;;;-0.96;100.00;95408.84;4981612;28;20026;-71
2022/01/27 16:20:34;;;;;;;39.22;22.98;;;;;;;-1.04;100.00;95418.66;4981630;28;20036;-73
2022/01/27 16:23:00;;;;;;;43.58;26.65;;;;;;;-1.05;100.00;95417.03;4967035;28;20029;-74
2022/01/27 16:25:25;;;;;;;36.10;22.23;;;;;;;-1.10;100.00;95419.03;4985876;28;20025;-74
2022/01/27 16:27:51;;;;;;;36.83;24.10;;;;;;;-1.03;100.00;95420.31;4966860;28;20052;-74
2022/01/27 16:30:18;;;;;;;40.63;22.63;;;;;;;-1.13;100.00;95420.03;4984561;28;20033;-74
2022/01/27 16:32:44;;;;;;;29.48;18.60;;;;;;;-1.09;100.00;95415.56;4977667;28;20051;-74
